createdAt,value
2019-04-07T00:01:10.277Z,168.72
2019-04-07T00:03:40.048Z,167.57
2019-04-07T00:06:09.696Z,164.70
2019-04-07T00:08:39.140Z,170.72
2019-04-07T00:11:08.524Z,164.57
2019-04-07T00:13:38.377Z,173.43
2019-04-07T00:16:08.401Z,165.55
2019-04-07T00:18:37.906Z,173.62
2019-04-07T00:21:07.354Z,176.82
2019-04-07T00:23:36.831Z,171.87
2019-04-07T00:26:06.441Z,172.95
2019-04-07T00:28:36.723Z,175.32
2019-04-07T00:31:06.442Z,165.92
2019-04-07T00:33:35.910Z,165.70
2019-04-07T00:36:05.934Z,161.07
2019-04-07T00:38:35.869Z,180.42
2019-04-07T00:41:06.036Z,161.85
2019-04-07T00:43:35.490Z,162.43
2019-04-07T00:46:06.286Z,163.06
2019-04-07T00:48:36.319Z,160.75
2019-04-07T00:51:05.912Z,171.53
2019-04-07T00:53:36.704Z,161.22
2019-04-07T00:56:07.230Z,166.15
2019-04-07T00:58:36.925Z,161.00
2019-04-07T01:01:08.981Z,162.20
2019-04-07T01:06:07.638Z,155.70
2019-04-07T01:08:37.262Z,167.37
2019-04-07T01:11:06.783Z,164.70
2019-04-07T01:13:36.294Z,154.57
2019-04-07T01:16:06.579Z,159.85
2019-04-07T01:18:37.066Z,158.25
2019-04-07T01:21:07.340Z,169.28
2019-04-07T01:23:36.843Z,164.65
2019-04-07T01:26:06.444Z,165.40
2019-04-07T01:28:36.296Z,171.32
2019-04-07T01:31:07.110Z,164.20
2019-04-07T01:33:36.778Z,173.90
2019-04-07T01:36:06.443Z,159.22
2019-04-07T01:38:35.847Z,159.93
2019-04-07T01:41:07.775Z,176.55
2019-04-07T01:43:44.729Z,166.97
2019-04-07T01:46:16.392Z,159.72
2019-04-07T01:48:51.066Z,159.72
2019-04-07T01:51:22.184Z,167.03
2019-04-07T01:53:53.190Z,173.68
2019-04-07T01:56:33.749Z,167.03
2019-04-07T01:59:19.972Z,169.05
2019-04-07T02:02:00.476Z,154.68
2019-04-07T02:04:37.487Z,156.43
2019-04-07T02:07:22.097Z,163.85
2019-04-07T02:12:55.631Z,165.35
2019-04-07T02:15:26.877Z,175.97
2019-04-07T02:18:00.921Z,167.33
2019-04-07T02:20:59.366Z,166.12
2019-04-07T02:23:33.886Z,170.75
2019-04-07T02:26:22.379Z,161.77
2019-04-07T02:29:02.675Z,169.28
2019-04-07T02:31:36.703Z,164.67
2019-04-07T02:34:09.542Z,157.43
2019-04-07T02:36:43.417Z,161.67
2019-04-07T02:39:23.186Z,160.63
2019-04-07T02:42:11.002Z,171.93
2019-04-07T02:44:57.419Z,170.20
2019-04-07T02:47:41.889Z,160.78
2019-04-07T02:50:24.144Z,162.72
2019-04-07T02:52:55.522Z,169.72
2019-04-07T02:58:29.879Z,157.75
2019-04-07T03:01:10.019Z,163.20
2019-04-07T03:03:41.182Z,167.82
2019-04-07T03:06:37.660Z,162.70
2019-04-07T03:08:59.980Z,164.50
2019-04-07T03:11:37.363Z,176.12
2019-04-07T03:14:17.679Z,169.02
2019-04-07T03:17:06.523Z,162.68
2019-04-07T03:19:56.261Z,168.62
2019-04-07T03:22:42.489Z,169.70
2019-04-07T03:25:17.188Z,170.07
2019-04-07T03:27:57.460Z,171.25
2019-04-07T03:30:32.559Z,157.45
2019-04-07T03:33:11.138Z,161.62
2019-04-07T03:36:01.714Z,162.88
2019-04-07T03:38:31.485Z,167.18
2019-04-07T03:41:09.711Z,163.87
2019-04-07T03:43:41.700Z,162.88
2019-04-07T03:46:29.778Z,157.73
2019-04-07T03:49:18.771Z,158.30
2019-04-07T03:51:56.018Z,164.07
2019-04-07T03:54:30.304Z,162.68
2019-04-07T03:57:04.782Z,161.82
2019-04-07T03:59:42.503Z,167.65
2019-04-07T04:02:14.223Z,161.30
2019-04-07T04:04:45.721Z,161.62
2019-04-07T04:07:27.577Z,165.00
2019-04-07T04:09:53.661Z,164.35
2019-04-07T04:12:43.674Z,159.93
2019-04-07T04:15:15.182Z,163.80
2019-04-07T04:20:13.341Z,158.67
2019-04-07T04:22:43.161Z,172.65
2019-04-07T04:25:12.872Z,164.70
2019-04-07T04:27:43.035Z,166.45
2019-04-07T04:30:13.427Z,160.00
2019-04-07T04:32:43.648Z,163.40
2019-04-07T04:35:13.289Z,164.00
2019-04-07T04:37:48.847Z,165.37
2019-04-07T04:40:15.942Z,158.03
2019-04-07T04:45:15.859Z,159.53
2019-04-07T04:47:46.347Z,168.32
2019-04-07T04:50:16.865Z,166.43
2019-04-07T04:52:46.925Z,158.50
2019-04-07T04:55:16.695Z,148.55
2019-04-07T04:57:46.257Z,166.10
2019-04-07T05:00:16.256Z,164.10
2019-04-07T05:02:45.738Z,159.95
2019-04-07T05:05:15.152Z,163.97
2019-04-07T05:07:53.838Z,150.38
2019-04-07T05:10:15.832Z,158.83
2019-04-07T05:12:45.273Z,163.72
2019-04-07T05:15:14.796Z,158.18
2019-04-07T05:17:44.572Z,162.32
2019-04-07T05:20:14.163Z,159.93
2019-04-07T05:22:43.592Z,147.43
2019-04-07T05:25:13.101Z,158.93
2019-04-07T05:27:43.184Z,143.15
2019-04-07T05:30:12.889Z,146.95
2019-04-07T05:32:42.337Z,160.30
2019-04-07T05:35:12.087Z,146.43
2019-04-07T05:37:41.787Z,146.15
2019-04-07T05:40:11.363Z,147.87
2019-04-07T05:42:41.880Z,147.13
2019-04-07T05:45:11.544Z,154.72
2019-04-07T05:47:47.332Z,158.37
2019-04-07T05:50:12.232Z,146.63
2019-04-07T05:52:42.179Z,158.27
2019-04-07T05:55:14.227Z,154.35
2019-04-07T05:57:44.227Z,150.80
2019-04-07T06:00:16.564Z,144.70
2019-04-07T06:02:45.784Z,153.62
2019-04-07T06:05:16.280Z,150.83
2019-04-07T06:07:47.027Z,143.70
2019-04-07T06:10:16.797Z,140.82
2019-04-07T06:12:47.364Z,143.28
2019-04-07T06:15:21.615Z,150.13
2019-04-07T06:17:49.015Z,142.60
2019-04-07T06:20:18.930Z,148.55
2019-04-07T06:22:52.731Z,139.52
2019-04-07T06:25:19.597Z,142.13
2019-04-07T06:27:49.035Z,139.47
2019-04-07T06:30:19.797Z,134.80
2019-04-07T06:32:49.225Z,127.63
2019-04-07T06:35:19.263Z,130.75
2019-04-07T06:37:50.831Z,134.12
2019-04-07T06:40:21.311Z,125.53
2019-04-07T06:42:51.829Z,131.93
2019-04-07T06:45:25.739Z,130.30
2019-04-07T06:48:01.603Z,130.27
2019-04-07T06:50:57.759Z,129.07
2019-04-07T06:53:40.339Z,127.75
2019-04-07T06:56:17.564Z,128.02
2019-04-07T06:58:52.548Z,122.07
2019-04-07T07:01:25.791Z,117.00
2019-04-07T07:04:10.875Z,124.27
2019-04-07T07:06:39.427Z,121.13
2019-04-07T07:09:26.446Z,118.75
2019-04-07T07:12:00.711Z,119.55
2019-04-07T07:14:48.464Z,119.22
2019-04-07T07:17:25.705Z,114.30
2019-04-07T07:20:05.617Z,111.88
2019-04-07T07:22:41.499Z,118.13
2019-04-07T07:25:18.129Z,110.68
2019-04-07T07:27:47.791Z,108.72
2019-04-07T07:30:21.350Z,102.97
2019-04-07T07:32:48.662Z,101.92
2019-04-07T07:35:25.595Z,98.50
2019-04-07T07:37:58.409Z,93.10
2019-04-07T07:40:27.562Z,92.00
2019-04-07T07:42:59.130Z,88.40
2019-04-07T07:45:28.977Z,90.07
2019-04-07T07:47:58.355Z,91.42
2019-04-07T07:50:28.498Z,85.72
2019-04-07T07:52:59.253Z,91.87
2019-04-07T07:55:33.904Z,81.15
2019-04-07T07:57:59.947Z,88.97
2019-04-07T08:00:29.508Z,85.67
2019-04-07T08:02:59.278Z,76.10
2019-04-07T08:05:32.972Z,75.40
2019-04-07T08:08:00.605Z,77.37
2019-04-07T08:10:30.252Z,73.28
2019-04-07T08:12:59.727Z,75.22
2019-04-07T08:15:32.291Z,72.65
2019-04-07T08:20:30.662Z,69.42
2019-04-07T08:23:00.675Z,71.50
2019-04-07T08:25:30.284Z,73.33
2019-04-07T08:28:02.180Z,65.57
2019-04-07T08:30:31.782Z,70.83
2019-04-07T08:33:02.201Z,71.37
2019-04-07T08:35:35.698Z,65.32
2019-04-07T08:38:05.465Z,64.60
2019-04-07T08:40:36.892Z,68.10
2019-04-07T08:43:06.241Z,69.70
2019-04-07T08:45:36.018Z,60.78
2019-04-07T08:48:06.362Z,65.27
2019-04-07T08:50:36.323Z,63.83
2019-04-07T08:53:05.801Z,68.53
2019-04-07T08:55:35.566Z,63.30
2019-04-07T08:58:06.643Z,61.68
2019-04-07T09:03:11.451Z,61.60
2019-04-07T09:05:37.860Z,62.53
2019-04-07T09:08:07.472Z,62.30
2019-04-07T09:10:49.626Z,58.40
2019-04-07T09:13:18.630Z,58.13
2019-04-07T09:15:49.913Z,59.03
2019-04-07T09:18:27.253Z,58.00
2019-04-07T09:21:18.328Z,59.07
2019-04-07T09:24:03.832Z,55.23
2019-04-07T09:26:49.987Z,56.20
2019-04-07T09:29:31.258Z,54.80
2019-04-07T09:32:02.462Z,59.38
2019-04-07T09:34:52.872Z,56.98
2019-04-07T09:37:24.370Z,51.17
2019-04-07T09:40:04.808Z,49.60
2019-04-07T09:42:57.432Z,53.95
2019-04-07T09:45:42.635Z,56.10
2019-04-07T09:48:19.184Z,56.10
2019-04-07T09:50:54.464Z,51.23
2019-04-07T09:53:25.090Z,49.83
2019-04-07T09:55:59.207Z,52.00
2019-04-07T09:58:45.573Z,54.48
2019-04-07T10:01:22.297Z,48.38
2019-04-07T10:03:59.217Z,51.10
2019-04-07T10:06:39.723Z,50.43
2019-04-07T10:09:11.401Z,55.70
2019-04-07T10:11:58.751Z,57.20
2019-04-07T10:14:42.126Z,50.55
2019-04-07T10:17:16.470Z,52.40
2019-04-07T10:19:47.745Z,58.08
2019-04-07T10:22:35.209Z,55.00
2019-04-07T10:28:07.258Z,46.55
2019-04-07T10:30:41.453Z,47.90
2019-04-07T10:33:13.333Z,48.20
2019-04-07T10:35:51.180Z,56.50
2019-04-07T10:38:25.959Z,44.80
2019-04-07T10:41:15.146Z,45.90
2019-04-07T10:43:47.791Z,49.30
2019-04-07T10:46:36.392Z,48.63
2019-04-07T10:49:15.699Z,49.33
2019-04-07T10:52:03.025Z,64.70
2019-04-07T10:54:50.468Z,49.38
2019-04-07T10:57:36.724Z,47.70
2019-04-07T11:00:27.746Z,47.62
2019-04-07T11:03:08.402Z,50.65
2019-04-07T11:05:54.937Z,46.53
2019-04-07T11:08:29.739Z,41.35
2019-04-07T11:11:04.484Z,44.23
2019-04-07T11:13:51.627Z,52.53
2019-04-07T11:16:39.163Z,53.83
2019-04-07T11:19:19.284Z,54.10
2019-04-07T11:22:05.678Z,56.23
2019-04-07T11:24:39.855Z,57.53
2019-04-07T11:27:11.284Z,60.30
2019-04-07T11:29:42.607Z,55.38
2019-04-07T11:32:28.890Z,58.40
2019-04-07T11:35:00.104Z,55.63
2019-04-07T11:37:39.733Z,53.17
2019-04-07T11:40:13.848Z,51.85
2019-04-07T11:42:44.937Z,63.15
2019-04-07T11:45:34.791Z,53.75
2019-04-07T11:48:08.844Z,52.55
2019-04-07T11:50:46.166Z,54.10
2019-04-07T11:53:33.681Z,49.35
2019-04-07T11:56:09.899Z,49.10
2019-04-07T11:58:55.269Z,41.23
2019-04-07T12:01:29.299Z,38.42
2019-04-07T12:04:04.337Z,42.95
2019-04-07T12:06:52.609Z,49.13
2019-04-07T12:09:42.090Z,33.83
2019-04-07T12:12:28.886Z,22.65
2019-04-07T12:15:00.019Z,24.72
2019-04-07T12:17:43.561Z,21.52
2019-04-07T12:20:17.654Z,23.83
2019-04-07T12:23:05.055Z,26.57
2019-04-07T12:25:37.325Z,25.30
2019-04-07T12:28:08.588Z,21.77
2019-04-07T12:30:42.658Z,23.65
2019-04-07T12:33:13.783Z,26.60
2019-04-07T12:36:02.008Z,20.60
2019-04-07T12:38:49.665Z,23.55
2019-04-07T12:41:22.220Z,26.27
2019-04-07T12:43:59.505Z,24.47
2019-04-07T12:46:36.642Z,26.20
2019-04-07T12:49:10.862Z,30.48
2019-04-07T12:51:44.531Z,22.32
2019-04-07T12:54:15.710Z,23.40
2019-04-07T12:57:05.319Z,24.27
2019-04-07T12:59:35.819Z,28.77
2019-04-07T13:02:20.027Z,22.93
2019-04-07T13:04:55.047Z,24.32
2019-04-07T13:10:17.718Z,25.52
2019-04-07T13:13:05.083Z,23.40
2019-04-07T13:15:52.568Z,25.45
2019-04-07T13:18:24.197Z,28.98
2019-04-07T13:23:29.718Z,23.87
2019-04-07T13:26:17.551Z,22.90
2019-04-07T13:29:05.315Z,33.73
2019-04-07T13:31:44.010Z,23.60
2019-04-07T13:34:21.015Z,23.80
2019-04-07T13:36:58.016Z,25.10
2019-04-07T13:39:47.067Z,22.52
2019-04-07T13:42:25.418Z,20.72
2019-04-07T13:45:13.224Z,24.57
2019-04-07T13:50:38.189Z,25.15
2019-04-07T13:53:27.024Z,26.42
2019-04-07T13:56:09.934Z,27.65
2019-04-07T13:58:56.992Z,22.47
2019-04-07T14:01:34.714Z,21.07
2019-04-07T14:04:22.600Z,26.70
2019-04-07T14:07:29.548Z,25.50
2019-04-07T14:10:16.189Z,20.32
2019-04-07T14:12:47.881Z,24.37
2019-04-07T14:18:05.859Z,23.50
2019-04-07T14:20:40.482Z,23.87
2019-04-07T14:23:28.675Z,21.42
2019-04-07T14:26:08.585Z,19.23
2019-04-07T14:28:41.219Z,21.40
2019-04-07T14:31:18.348Z,23.95
2019-04-07T14:34:04.300Z,22.80
2019-04-07T14:36:52.384Z,22.07
2019-04-07T14:39:40.041Z,20.35
2019-04-07T14:42:11.960Z,21.17
2019-04-07T14:44:50.002Z,25.30
2019-04-07T14:47:30.383Z,24.32
2019-04-07T14:50:02.370Z,29.00
2019-04-07T14:52:42.631Z,21.80
2019-04-07T14:55:32.535Z,25.55
2019-04-07T14:58:18.655Z,22.77
2019-04-07T15:01:04.513Z,18.60
2019-04-07T15:03:31.636Z,22.20
2019-04-07T15:06:02.194Z,20.53
2019-04-07T15:08:49.810Z,21.73
2019-04-07T15:11:23.748Z,24.02
2019-04-07T15:13:56.992Z,21.75
2019-04-07T15:16:26.323Z,26.62
2019-04-07T15:18:56.597Z,24.73
2019-04-07T15:21:26.076Z,24.30
2019-04-07T15:23:56.173Z,25.33
2019-04-07T15:26:25.597Z,28.50
2019-04-07T15:28:57.116Z,28.65
2019-04-07T15:31:26.432Z,26.10
2019-04-07T15:33:56.345Z,23.70
2019-04-07T15:36:26.431Z,26.97
2019-04-07T15:38:57.321Z,24.43
2019-04-07T15:41:28.127Z,24.12
2019-04-07T15:47:00.099Z,24.60
2019-04-07T15:49:34.377Z,27.27
2019-04-07T15:51:38.736Z,23.10
2019-04-07T15:54:08.197Z,25.20
2019-04-07T15:56:37.971Z,27.07
2019-04-07T15:59:07.625Z,22.58
2019-04-07T16:01:38.635Z,22.98
2019-04-07T16:06:37.091Z,24.87
2019-04-07T16:09:13.888Z,28.55
2019-04-07T16:11:40.544Z,25.77
2019-04-07T16:14:13.197Z,24.60
2019-04-07T16:16:41.529Z,26.10
2019-04-07T16:19:17.591Z,24.45
2019-04-07T16:21:43.425Z,23.45
2019-04-07T16:24:13.569Z,21.23
2019-04-07T16:26:43.330Z,21.42
2019-04-07T16:29:15.515Z,23.13
2019-04-07T16:31:43.941Z,24.85
2019-04-07T16:34:13.329Z,21.05
2019-04-07T16:36:43.354Z,24.12
2019-04-07T16:39:13.627Z,25.30
2019-04-07T16:41:45.891Z,28.00
2019-04-07T16:44:14.426Z,19.87
2019-04-07T16:46:43.798Z,22.93
2019-04-07T16:49:14.033Z,36.58
2019-04-07T16:54:13.260Z,25.80
2019-04-07T16:56:44.033Z,25.32
2019-04-07T16:59:13.595Z,23.90
2019-04-07T17:01:43.358Z,24.43
2019-04-07T17:04:13.159Z,25.30
2019-04-07T17:06:42.604Z,24.30
2019-04-07T17:09:22.414Z,58.45
2019-04-07T17:11:51.587Z,33.18
2019-04-07T17:14:21.100Z,23.47
2019-04-07T17:16:50.468Z,26.97
2019-04-07T17:19:20.041Z,26.00
2019-04-07T17:21:50.137Z,26.20
2019-04-07T17:24:25.067Z,24.45
2019-04-07T17:26:52.958Z,25.48
2019-04-07T17:29:23.422Z,25.17
2019-04-07T17:31:52.976Z,28.17
2019-04-07T17:34:22.918Z,24.12
2019-04-07T17:36:55.994Z,27.87
2019-04-07T17:42:00.169Z,25.10
2019-04-07T17:44:33.976Z,30.25
2019-04-07T17:47:08.412Z,45.33
2019-04-07T17:49:39.628Z,174.53
2019-04-07T17:52:22.524Z,406.87
2019-04-07T17:55:08.395Z,91.17
2019-04-07T17:57:56.427Z,58.55
2019-04-07T18:00:34.170Z,43.90
2019-04-07T18:03:09.539Z,36.63
2019-04-07T18:05:47.048Z,33.58
2019-04-07T18:08:20.184Z,35.40
2019-04-07T18:13:56.617Z,30.12
2019-04-07T18:16:32.258Z,32.38
2019-04-07T18:19:19.785Z,31.97
2019-04-07T18:21:54.163Z,30.82
2019-04-07T18:24:35.018Z,28.87
2019-04-07T18:27:17.146Z,31.90
2019-04-07T18:30:04.220Z,28.50
2019-04-07T18:32:41.764Z,24.98
2019-04-07T18:35:15.235Z,33.53
2019-04-07T18:37:46.347Z,33.67
2019-04-07T18:40:27.180Z,34.83
2019-04-07T18:43:18.887Z,33.18
2019-04-07T18:46:05.116Z,33.75
2019-04-07T18:48:53.324Z,35.03
2019-04-07T18:51:44.570Z,30.82
2019-04-07T18:54:19.316Z,35.23
2019-04-07T18:56:57.127Z,37.50
2019-04-07T18:59:29.753Z,36.33
2019-04-07T19:02:19.379Z,34.27
2019-04-07T19:04:51.595Z,31.30
2019-04-07T19:07:33.400Z,40.55
2019-04-07T19:10:12.954Z,37.13
2019-04-07T19:12:41.034Z,35.23
2019-04-07T19:15:18.040Z,39.10
2019-04-07T19:18:07.427Z,37.85
2019-04-07T19:20:44.125Z,40.45
2019-04-07T19:23:26.306Z,35.67
2019-04-07T19:26:16.421Z,42.83
2019-04-07T19:28:46.478Z,40.83
2019-04-07T19:31:20.291Z,36.88
2019-04-07T19:33:57.887Z,41.48
2019-04-07T19:36:27.389Z,37.25
2019-04-07T19:39:11.088Z,37.38
2019-04-07T19:41:42.453Z,44.05
2019-04-07T19:44:16.226Z,38.47
2019-04-07T19:47:01.534Z,39.08
2019-04-07T19:49:43.163Z,36.70
2019-04-07T19:52:34.110Z,38.00
2019-04-07T19:55:24.855Z,43.68
2019-04-07T19:58:09.727Z,39.70
2019-04-07T20:00:58.155Z,37.83
2019-04-07T20:03:45.342Z,39.55
2019-04-07T20:06:29.820Z,38.60
2019-04-07T20:09:17.776Z,43.13
2019-04-07T20:12:05.297Z,42.10
2019-04-07T20:14:52.701Z,41.88
2019-04-07T20:17:34.495Z,40.93
2019-04-07T20:20:15.375Z,37.20
2019-04-07T20:23:02.734Z,45.87
2019-04-07T20:25:41.099Z,41.95
2019-04-07T20:28:13.118Z,43.23
2019-04-07T20:30:51.445Z,36.85
2019-04-07T20:33:38.906Z,47.05
2019-04-07T20:36:23.363Z,38.10
2019-04-07T20:39:07.766Z,44.30
2019-04-07T20:41:40.229Z,42.15
2019-04-07T20:44:33.049Z,45.03
2019-04-07T20:47:17.610Z,40.00
2019-04-07T20:50:04.283Z,43.15
2019-04-07T20:52:38.362Z,42.55
2019-04-07T20:55:21.490Z,41.35
2019-04-07T20:58:18.723Z,43.10
2019-04-07T21:01:02.479Z,42.80
2019-04-07T21:03:30.439Z,41.20
2019-04-07T21:06:02.088Z,39.80
2019-04-07T21:08:39.913Z,45.17
2019-04-07T21:11:25.907Z,45.92
2019-04-07T21:14:09.278Z,39.53
2019-04-07T21:16:46.468Z,42.85
2019-04-07T21:19:23.475Z,43.73
2019-04-07T21:21:54.479Z,43.00
2019-04-07T21:24:43.474Z,43.83
2019-04-07T21:27:33.879Z,41.42
2019-04-07T21:30:06.541Z,45.08
2019-04-07T21:32:38.721Z,47.03
2019-04-07T21:35:29.195Z,47.50
2019-04-07T21:38:20.827Z,43.20
2019-04-07T21:40:50.149Z,46.40
2019-04-07T21:43:28.501Z,43.20
2019-04-07T21:46:21.056Z,42.10
2019-04-07T21:48:49.023Z,38.85
2019-04-07T21:51:29.094Z,44.77
2019-04-07T21:54:04.061Z,41.30
2019-04-07T21:56:35.352Z,39.88
2019-04-07T21:59:10.746Z,45.83
2019-04-07T22:01:59.209Z,51.55
2019-04-07T22:04:34.039Z,40.70
2019-04-07T22:07:07.745Z,41.40
2019-04-07T22:09:38.844Z,47.00
2019-04-07T22:12:08.569Z,42.30
2019-04-07T22:14:40.950Z,41.73
2019-04-07T22:17:09.466Z,47.07
2019-04-07T22:19:43.796Z,46.98
2019-04-07T22:22:10.827Z,44.85
2019-04-07T22:27:11.532Z,43.65
2019-04-07T22:29:41.609Z,45.15
2019-04-07T22:32:11.690Z,43.78
2019-04-07T22:34:41.911Z,41.75
2019-04-07T22:37:12.173Z,41.68
2019-04-07T22:39:41.817Z,39.27
2019-04-07T22:42:14.412Z,38.83
2019-04-07T22:44:42.485Z,39.05
2019-04-07T22:47:13.120Z,44.60
2019-04-07T22:49:43.099Z,41.42
2019-04-07T22:52:16.047Z,37.48
2019-04-07T22:54:44.282Z,48.27
2019-04-07T22:57:15.391Z,44.33
2019-04-07T22:59:44.913Z,42.50
2019-04-07T23:02:14.344Z,44.38
2019-04-07T23:04:43.695Z,45.58
2019-04-07T23:07:14.041Z,43.87
2019-04-07T23:09:43.493Z,43.30
2019-04-07T23:12:14.719Z,44.80
2019-04-07T23:14:46.453Z,45.48
2019-04-07T23:17:17.665Z,47.83
2019-04-07T23:19:47.052Z,39.78
2019-04-07T23:22:16.479Z,45.67
2019-04-07T23:24:45.856Z,43.78
2019-04-07T23:27:15.217Z,42.80
2019-04-07T23:29:44.592Z,44.93
2019-04-07T23:32:14.044Z,41.75
2019-04-07T23:34:43.634Z,44.13
2019-04-07T23:37:13.195Z,45.80
2019-04-07T23:39:42.613Z,43.63
2019-04-07T23:42:13.156Z,42.62
2019-04-07T23:44:42.630Z,40.40
2019-04-07T23:47:12.007Z,45.28
2019-04-07T23:49:41.354Z,41.33
2019-04-07T23:52:11.093Z,45.98
2019-04-07T23:54:40.636Z,43.20
2019-04-07T23:57:09.988Z,40.54
2019-04-07T23:59:40.096Z,45.90
